sensor_id;sensor_type;location;lat;lon;timestamp;temperature;humidity
3976;DHT22;2002;48.812;9.180;2023-07-09T00:02:24;24.30;1.00
3976;DHT22;2002;48.812;9.180;2023-07-09T00:04:50;24.30;1.00
3976;DHT22;2002;48.812;9.180;2023-07-09T00:07:25;24.30;1.00
3976;DHT22;2002;48.812;9.180;2023-07-09T00:09:53;24.40;1.00
3976;DHT22;2002;48.812;9.180;2023-07-09T00:12:18;24.30;1.00
3976;DHT22;2002;48.812;9.180;2023-07-09T00:14:45;24.30;1.00
3976;DHT22;2002;48.812;9.180;2023-07-09T00:17:31;24.40;1.00
3976;DHT22;2002;48.812;9.180;2023-07-09T00:19:59;24.30;1.00
3976;DHT22;2002;48.812;9.180;2023-07-09T00:22:24;24.40;1.00
3976;DHT22;2002;48.812;9.180;2023-07-09T00:24:52;24.40;1.00
3976;DHT22;2002;48.812;9.180;2023-07-09T00:27:23;24.40;1.00
3976;DHT22;2002;48.812;9.180;2023-07-09T00:29:51;24.40;9.60
3976;DHT22;2002;48.812;9.180;2023-07-09T00:32:19;24.40;5.10
3976;DHT22;2002;48.812;9.180;2023-07-09T00:34:48;24.40;18.20
3976;DHT22;2002;48.812;9.180;2023-07-09T00:37:19;24.40;18.00
3976;DHT22;2002;48.812;9.180;2023-07-09T00:39:46;24.40;18.60
3976;DHT22;2002;48.812;9.180;2023-07-09T00:42:14;24.40;18.00
3976;DHT22;2002;48.812;9.180;2023-07-09T00:44:44;24.40;18.00
3976;DHT22;2002;48.812;9.180;2023-07-09T00:47:33;24.40;18.20
3976;DHT22;2002;48.812;9.180;2023-07-09T00:50:15;24.40;18.40
3976;DHT22;2002;48.812;9.180;2023-07-09T00:52:57;24.40;27.90
3976;DHT22;2002;48.812;9.180;2023-07-09T00:55:26;24.40;28.20
3976;DHT22;2002;48.812;9.180;2023-07-09T00:57:56;24.40;18.30
3976;DHT22;2002;48.812;9.180;2023-07-09T01:00:45;24.40;31.50
3976;DHT22;2002;48.812;9.180;2023-07-09T01:03:29;24.40;31.90
3976;DHT22;2002;48.812;9.180;2023-07-09T01:05:57;24.40;21.60
3976;DHT22;2002;48.812;9.180;2023-07-09T01:08:24;24.50;19.00
3976;DHT22;2002;48.812;9.180;2023-07-09T01:10:50;24.50;18.10
3976;DHT22;2002;48.812;9.180;2023-07-09T01:13:16;24.50;34.30
3976;DHT22;2002;48.812;9.180;2023-07-09T01:15:43;24.50;18.20
3976;DHT22;2002;48.812;9.180;2023-07-09T01:18:10;24.50;18.30
3976;DHT22;2002;48.812;9.180;2023-07-09T01:20:38;24.50;18.10
3976;DHT22;2002;48.812;9.180;2023-07-09T01:23:04;24.40;18.20
3976;DHT22;2002;48.812;9.180;2023-07-09T01:25:31;24.50;18.10
3976;DHT22;2002;48.812;9.180;2023-07-09T01:27:57;24.50;4.80
3976;DHT22;2002;48.812;9.180;2023-07-09T01:30:33;24.50;1.00
3976;DHT22;2002;48.812;9.180;2023-07-09T01:33:01;24.50;1.00
3976;DHT22;2002;48.812;9.180;2023-07-09T01:35:28;24.50;4.30
3976;DHT22;2002;48.812;9.180;2023-07-09T01:37:55;24.50;1.00
3976;DHT22;2002;48.812;9.180;2023-07-09T01:40:23;24.50;1.00
3976;DHT22;2002;48.812;9.180;2023-07-09T01:42:50;24.50;1.00
3976;DHT22;2002;48.812;9.180;2023-07-09T01:45:17;24.50;1.00
3976;DHT22;2002;48.812;9.180;2023-07-09T01:47:43;24.50;1.00
3976;DHT22;2002;48.812;9.180;2023-07-09T01:50:11;24.50;1.00
3976;DHT22;2002;48.812;9.180;2023-07-09T01:52:40;24.50;1.00
3976;DHT22;2002;48.812;9.180;2023-07-09T01:55:09;24.50;1.00
3976;DHT22;2002;48.812;9.180;2023-07-09T01:57:36;24.50;1.00
3976;DHT22;2002;48.812;9.180;2023-07-09T02:00:05;24.50;1.00
3976;DHT22;2002;48.812;9.180;2023-07-09T02:02:31;24.50;1.00
3976;DHT22;2002;48.812;9.180;2023-07-09T02:04:58;24.50;18.60
3976;DHT22;2002;48.812;9.180;2023-07-09T02:07:25;24.50;1.00
3976;DHT22;2002;48.812;9.180;2023-07-09T02:09:51;24.50;1.00
3976;DHT22;2002;48.812;9.180;2023-07-09T02:12:17;24.50;1.00
3976;DHT22;2002;48.812;9.180;2023-07-09T02:14:44;24.50;1.00
3976;DHT22;2002;48.812;9.180;2023-07-09T02:17:11;24.50;1.00
3976;DHT22;2002;48.812;9.180;2023-07-09T02:19:37;24.50;8.60
3976;DHT22;2002;48.812;9.180;2023-07-09T02:22:03;24.50;1.00
3976;DHT22;2002;48.812;9.180;2023-07-09T02:24:29;24.50;1.00
3976;DHT22;2002;48.812;9.180;2023-07-09T02:26:55;24.50;1.00
3976;DHT22;2002;48.812;9.180;2023-07-09T02:29:21;24.50;1.00
3976;DHT22;2002;48.812;9.180;2023-07-09T02:31:49;24.50;1.00
3976;DHT22;2002;48.812;9.180;2023-07-09T02:34:15;24.50;1.00
3976;DHT22;2002;48.812;9.180;2023-07-09T02:36:40;24.50;1.00
3976;DHT22;2002;48.812;9.180;2023-07-09T02:39:09;24.50;1.00
3976;DHT22;2002;48.812;9.180;2023-07-09T02:41:35;24.50;1.00
3976;DHT22;2002;48.812;9.180;2023-07-09T02:44:01;24.50;1.00
3976;DHT22;2002;48.812;9.180;2023-07-09T02:46:27;24.50;1.00
3976;DHT22;2002;48.812;9.180;2023-07-09T02:48:52;24.50;1.00
3976;DHT22;2002;48.812;9.180;2023-07-09T02:51:18;24.50;1.00
3976;DHT22;2002;48.812;9.180;2023-07-09T02:53:43;24.50;1.00
3976;DHT22;2002;48.812;9.180;2023-07-09T02:56:09;24.50;1.00
3976;DHT22;2002;48.812;9.180;2023-07-09T02:58:34;24.50;1.00
3976;DHT22;2002;48.812;9.180;2023-07-09T03:01:00;24.50;1.00
3976;DHT22;2002;48.812;9.180;2023-07-09T03:03:26;24.50;1.00
3976;DHT22;2002;48.812;9.180;2023-07-09T03:05:54;24.50;1.00
3976;DHT22;2002;48.812;9.180;2023-07-09T03:08:20;24.50;1.00
3976;DHT22;2002;48.812;9.180;2023-07-09T03:10:45;24.50;1.00
3976;DHT22;2002;48.812;9.180;2023-07-09T03:13:11;24.50;1.00
3976;DHT22;2002;48.812;9.180;2023-07-09T03:15:36;24.50;1.00
3976;DHT22;2002;48.812;9.180;2023-07-09T03:18:02;24.50;1.00
3976;DHT22;2002;48.812;9.180;2023-07-09T03:20:27;24.50;1.00
3976;DHT22;2002;48.812;9.180;2023-07-09T03:22:53;24.50;1.00
3976;DHT22;2002;48.812;9.180;2023-07-09T03:25:18;24.60;1.00
3976;DHT22;2002;48.812;9.180;2023-07-09T03:27:47;24.50;1.00
3976;DHT22;2002;48.812;9.180;2023-07-09T03:30:13;24.60;1.00
3976;DHT22;2002;48.812;9.180;2023-07-09T03:32:38;24.60;1.00
3976;DHT22;2002;48.812;9.180;2023-07-09T03:35:06;24.50;1.00
3976;DHT22;2002;48.812;9.180;2023-07-09T03:37:33;24.60;1.00
3976;DHT22;2002;48.812;9.180;2023-07-09T03:39:59;24.60;1.00
3976;DHT22;2002;48.812;9.180;2023-07-09T03:42:25;24.60;1.00
3976;DHT22;2002;48.812;9.180;2023-07-09T03:44:50;24.60;1.00
3976;DHT22;2002;48.812;9.180;2023-07-09T03:47:16;24.60;1.00
3976;DHT22;2002;48.812;9.180;2023-07-09T03:49:43;24.60;1.00
3976;DHT22;2002;48.812;9.180;2023-07-09T03:52:09;24.60;1.00
3976;DHT22;2002;48.812;9.180;2023-07-09T03:54:34;24.60;1.00
3976;DHT22;2002;48.812;9.180;2023-07-09T03:57:00;24.60;1.00
3976;DHT22;2002;48.812;9.180;2023-07-09T03:59:25;24.60;1.00
3976;DHT22;2002;48.812;9.180;2023-07-09T04:01:51;24.50;1.00
3976;DHT22;2002;48.812;9.180;2023-07-09T04:04:16;24.60;1.00
3976;DHT22;2002;48.812;9.180;2023-07-09T04:06:48;24.50;1.00
3976;DHT22;2002;48.812;9.180;2023-07-09T04:09:14;24.50;1.00
3976;DHT22;2002;48.812;9.180;2023-07-09T04:11:39;24.50;1.00
3976;DHT22;2002;48.812;9.180;2023-07-09T04:14:05;24.50;1.00
3976;DHT22;2002;48.812;9.180;2023-07-09T04:16:32;24.50;1.00
3976;DHT22;2002;48.812;9.180;2023-07-09T04:18:57;24.50;1.00
3976;DHT22;2002;48.812;9.180;2023-07-09T04:21:23;24.50;1.00
3976;DHT22;2002;48.812;9.180;2023-07-09T04:23:48;24.50;1.00
3976;DHT22;2002;48.812;9.180;2023-07-09T04:26:14;24.50;1.00
3976;DHT22;2002;48.812;9.180;2023-07-09T04:28:40;24.50;1.00
3976;DHT22;2002;48.812;9.180;2023-07-09T04:31:05;24.50;1.00
3976;DHT22;2002;48.812;9.180;2023-07-09T04:33:31;24.50;1.00
3976;DHT22;2002;48.812;9.180;2023-07-09T04:35:57;24.50;1.00
3976;DHT22;2002;48.812;9.180;2023-07-09T04:38:22;24.50;1.00
3976;DHT22;2002;48.812;9.180;2023-07-09T04:40:48;24.50;1.00
3976;DHT22;2002;48.812;9.180;2023-07-09T04:43:14;24.50;1.00
3976;DHT22;2002;48.812;9.180;2023-07-09T04:45:39;24.50;1.00
3976;DHT22;2002;48.812;9.180;2023-07-09T04:48:05;24.50;1.00
3976;DHT22;2002;48.812;9.180;2023-07-09T04:50:31;24.60;1.00
3976;DHT22;2002;48.812;9.180;2023-07-09T04:55:22;24.60;1.00
3976;DHT22;2002;48.812;9.180;2023-07-09T04:57:48;24.60;1.00
3976;DHT22;2002;48.812;9.180;2023-07-09T05:00:14;24.60;1.00
3976;DHT22;2002;48.812;9.180;2023-07-09T05:02:39;24.60;1.00
3976;DHT22;2002;48.812;9.180;2023-07-09T05:05:05;24.60;1.00
3976;DHT22;2002;48.812;9.180;2023-07-09T05:07:32;24.60;1.00
3976;DHT22;2002;48.812;9.180;2023-07-09T05:09:58;24.60;1.00
3976;DHT22;2002;48.812;9.180;2023-07-09T05:12:27;24.60;1.00
3976;DHT22;2002;48.812;9.180;2023-07-09T05:14:54;24.60;1.00
3976;DHT22;2002;48.812;9.180;2023-07-09T05:17:22;24.60;1.00
3976;DHT22;2002;48.812;9.180;2023-07-09T05:19:48;24.60;1.00
3976;DHT22;2002;48.812;9.180;2023-07-09T05:22:13;24.50;99.90
3976;DHT22;2002;48.812;9.180;2023-07-09T05:24:39;24.50;99.90
3976;DHT22;2002;48.812;9.180;2023-07-09T05:27:04;24.50;99.90
3976;DHT22;2002;48.812;9.180;2023-07-09T05:29:30;24.50;99.90
3976;DHT22;2002;48.812;9.180;2023-07-09T05:31:55;24.50;99.90
3976;DHT22;2002;48.812;9.180;2023-07-09T05:34:21;24.40;99.90
3976;DHT22;2002;48.812;9.180;2023-07-09T05:36:47;24.40;99.90
3976;DHT22;2002;48.812;9.180;2023-07-09T05:39:12;24.40;99.90
3976;DHT22;2002;48.812;9.180;2023-07-09T05:41:38;24.40;99.90
3976;DHT22;2002;48.812;9.180;2023-07-09T05:44:03;24.40;99.90
3976;DHT22;2002;48.812;9.180;2023-07-09T05:46:34;24.40;99.90
3976;DHT22;2002;48.812;9.180;2023-07-09T05:49:01;24.40;99.90
3976;DHT22;2002;48.812;9.180;2023-07-09T05:51:27;24.40;99.90
3976;DHT22;2002;48.812;9.180;2023-07-09T05:53:52;24.30;99.90
3976;DHT22;2002;48.812;9.180;2023-07-09T05:56:18;24.30;99.90
3976;DHT22;2002;48.812;9.180;2023-07-09T05:58:43;24.30;97.60
3976;DHT22;2002;48.812;9.180;2023-07-09T06:01:09;24.30;99.90
3976;DHT22;2002;48.812;9.180;2023-07-09T06:03:34;24.30;96.90
3976;DHT22;2002;48.812;9.180;2023-07-09T06:06:00;24.30;96.50
3976;DHT22;2002;48.812;9.180;2023-07-09T06:08:26;24.30;88.60
3976;DHT22;2002;48.812;9.180;2023-07-09T06:10:59;24.20;90.40
3976;DHT22;2002;48.812;9.180;2023-07-09T06:13:26;24.30;94.50
3976;DHT22;2002;48.812;9.180;2023-07-09T06:15:54;24.20;87.70
3976;DHT22;2002;48.812;9.180;2023-07-09T06:18:21;24.20;93.30
3976;DHT22;2002;48.812;9.180;2023-07-09T06:20:48;24.20;90.00
3976;DHT22;2002;48.812;9.180;2023-07-09T06:23:14;24.20;85.40
3976;DHT22;2002;48.812;9.180;2023-07-09T06:25:40;24.20;90.90
3976;DHT22;2002;48.812;9.180;2023-07-09T06:28:06;24.20;94.30
3976;DHT22;2002;48.812;9.180;2023-07-09T06:30:31;24.20;93.20
3976;DHT22;2002;48.812;9.180;2023-07-09T06:32:57;24.20;94.50
3976;DHT22;2002;48.812;9.180;2023-07-09T06:35:23;24.20;92.20
3976;DHT22;2002;48.812;9.180;2023-07-09T06:37:48;24.20;89.40
3976;DHT22;2002;48.812;9.180;2023-07-09T06:40:14;24.20;95.30
3976;DHT22;2002;48.812;9.180;2023-07-09T06:42:39;24.20;99.90
3976;DHT22;2002;48.812;9.180;2023-07-09T06:45:05;24.10;95.20
3976;DHT22;2002;48.812;9.180;2023-07-09T06:47:31;24.10;96.10
3976;DHT22;2002;48.812;9.180;2023-07-09T06:49:56;24.10;91.80
3976;DHT22;2002;48.812;9.180;2023-07-09T06:52:22;24.20;95.70
3976;DHT22;2002;48.812;9.180;2023-07-09T06:54:47;24.10;99.70
3976;DHT22;2002;48.812;9.180;2023-07-09T06:57:14;24.10;98.70
3976;DHT22;2002;48.812;9.180;2023-07-09T06:59:40;24.10;97.70
3976;DHT22;2002;48.812;9.180;2023-07-09T07:02:05;24.10;99.90
3976;DHT22;2002;48.812;9.180;2023-07-09T07:04:31;24.10;99.90
3976;DHT22;2002;48.812;9.180;2023-07-09T07:06:56;24.10;99.90
3976;DHT22;2002;48.812;9.180;2023-07-09T07:09:23;24.10;99.90
3976;DHT22;2002;48.812;9.180;2023-07-09T07:11:49;24.10;99.90
3976;DHT22;2002;48.812;9.180;2023-07-09T07:14:15;24.10;99.90
3976;DHT22;2002;48.812;9.180;2023-07-09T07:16:41;24.10;99.90
3976;DHT22;2002;48.812;9.180;2023-07-09T07:19:06;24.10;95.80
3976;DHT22;2002;48.812;9.180;2023-07-09T07:21:32;24.10;93.20
3976;DHT22;2002;48.812;9.180;2023-07-09T07:23:57;24.10;96.70
3976;DHT22;2002;48.812;9.180;2023-07-09T07:26:23;24.10;94.50
3976;DHT22;2002;48.812;9.180;2023-07-09T07:28:48;24.10;92.40
3976;DHT22;2002;48.812;9.180;2023-07-09T07:31:15;24.10;95.60
3976;DHT22;2002;48.812;9.180;2023-07-09T07:33:41;24.20;92.00
3976;DHT22;2002;48.812;9.180;2023-07-09T07:36:07;24.10;94.30
3976;DHT22;2002;48.812;9.180;2023-07-09T07:38:33;24.10;92.60
3976;DHT22;2002;48.812;9.180;2023-07-09T07:40:59;24.10;88.30
3976;DHT22;2002;48.812;9.180;2023-07-09T07:43:25;24.20;91.80
3976;DHT22;2002;48.812;9.180;2023-07-09T07:45:50;24.20;91.60
3976;DHT22;2002;48.812;9.180;2023-07-09T07:48:16;24.20;87.00
3976;DHT22;2002;48.812;9.180;2023-07-09T07:50:42;24.20;82.60
3976;DHT22;2002;48.812;9.180;2023-07-09T07:53:08;24.20;80.80
3976;DHT22;2002;48.812;9.180;2023-07-09T07:55:34;24.20;79.80
3976;DHT22;2002;48.812;9.180;2023-07-09T07:58:02;24.20;76.60
3976;DHT22;2002;48.812;9.180;2023-07-09T08:00:29;24.20;75.70
3976;DHT22;2002;48.812;9.180;2023-07-09T08:02:55;24.20;76.20
3976;DHT22;2002;48.812;9.180;2023-07-09T08:05:20;24.20;75.30
3976;DHT22;2002;48.812;9.180;2023-07-09T08:07:46;24.20;78.30
3976;DHT22;2002;48.812;9.180;2023-07-09T08:10:12;24.20;81.40
3976;DHT22;2002;48.812;9.180;2023-07-09T08:12:38;24.30;70.30
3976;DHT22;2002;48.812;9.180;2023-07-09T08:15:04;24.30;81.40
3976;DHT22;2002;48.812;9.180;2023-07-09T08:17:31;24.30;78.10
3976;DHT22;2002;48.812;9.180;2023-07-09T08:19:57;24.30;73.30
3976;DHT22;2002;48.812;9.180;2023-07-09T08:22:22;24.30;71.60
3976;DHT22;2002;48.812;9.180;2023-07-09T08:24:49;24.30;76.30
3976;DHT22;2002;48.812;9.180;2023-07-09T08:27:15;24.30;67.40
3976;DHT22;2002;48.812;9.180;2023-07-09T08:29:41;24.30;69.80
3976;DHT22;2002;48.812;9.180;2023-07-09T08:32:08;24.30;65.90
3976;DHT22;2002;48.812;9.180;2023-07-09T08:34:35;24.30;68.70
3976;DHT22;2002;48.812;9.180;2023-07-09T08:37:01;24.30;68.00
3976;DHT22;2002;48.812;9.180;2023-07-09T08:39:27;24.30;73.80
3976;DHT22;2002;48.812;9.180;2023-07-09T08:41:58;24.30;78.20
3976;DHT22;2002;48.812;9.180;2023-07-09T08:47:33;24.30;75.30
3976;DHT22;2002;48.812;9.180;2023-07-09T08:50:16;24.40;75.00
3976;DHT22;2002;48.812;9.180;2023-07-09T08:52:44;24.40;98.70
3976;DHT22;2002;48.812;9.180;2023-07-09T08:55:14;24.40;71.60
3976;DHT22;2002;48.812;9.180;2023-07-09T08:57:44;24.40;77.40
3976;DHT22;2002;48.812;9.180;2023-07-09T09:00:17;24.40;73.90
3976;DHT22;2002;48.812;9.180;2023-07-09T09:02:52;24.40;79.00
3976;DHT22;2002;48.812;9.180;2023-07-09T09:05:22;24.40;74.80
3976;DHT22;2002;48.812;9.180;2023-07-09T09:08:03;24.40;77.90
3976;DHT22;2002;48.812;9.180;2023-07-09T09:10:43;24.40;73.70
3976;DHT22;2002;48.812;9.180;2023-07-09T09:13:12;24.50;76.70
3976;DHT22;2002;48.812;9.180;2023-07-09T09:15:44;24.50;74.40
3976;DHT22;2002;48.812;9.180;2023-07-09T09:18:20;24.50;74.20
3976;DHT22;2002;48.812;9.180;2023-07-09T09:21:02;24.50;80.00
3976;DHT22;2002;48.812;9.180;2023-07-09T09:23:39;24.50;77.80
3976;DHT22;2002;48.812;9.180;2023-07-09T09:26:16;24.50;83.80
3976;DHT22;2002;48.812;9.180;2023-07-09T09:28:43;24.50;80.40
3976;DHT22;2002;48.812;9.180;2023-07-09T09:31:11;24.60;80.30
3976;DHT22;2002;48.812;9.180;2023-07-09T09:33:42;24.60;76.80
3976;DHT22;2002;48.812;9.180;2023-07-09T09:36:19;24.60;85.10
3976;DHT22;2002;48.812;9.180;2023-07-09T09:38:45;24.60;87.50
3976;DHT22;2002;48.812;9.180;2023-07-09T09:41:21;24.60;91.60
3976;DHT22;2002;48.812;9.180;2023-07-09T09:43:48;24.60;99.30
3976;DHT22;2002;48.812;9.180;2023-07-09T09:46:26;24.70;99.90
3976;DHT22;2002;48.812;9.180;2023-07-09T09:48:59;24.70;99.90
3976;DHT22;2002;48.812;9.180;2023-07-09T09:51:25;24.70;99.90
3976;DHT22;2002;48.812;9.180;2023-07-09T09:53:57;24.70;99.90
3976;DHT22;2002;48.812;9.180;2023-07-09T09:56:29;24.70;99.90
3976;DHT22;2002;48.812;9.180;2023-07-09T09:58:56;24.70;99.90
3976;DHT22;2002;48.812;9.180;2023-07-09T10:01:31;24.70;99.90
3976;DHT22;2002;48.812;9.180;2023-07-09T10:03:59;24.70;99.90
3976;DHT22;2002;48.812;9.180;2023-07-09T10:06:46;24.70;99.90
3976;DHT22;2002;48.812;9.180;2023-07-09T10:12:35;24.70;99.90
3976;DHT22;2002;48.812;9.180;2023-07-09T10:15:16;24.70;99.90
3976;DHT22;2002;48.812;9.180;2023-07-09T10:31:45;24.70;99.90
3976;DHT22;2002;48.812;9.180;2023-07-09T10:34:31;24.70;99.90
3976;DHT22;2002;48.812;9.180;2023-07-09T10:39:36;24.70;99.90
3976;DHT22;2002;48.812;9.180;2023-07-09T10:42:02;24.70;99.90
3976;DHT22;2002;48.812;9.180;2023-07-09T10:44:41;24.70;99.90
3976;DHT22;2002;48.812;9.180;2023-07-09T10:49:53;24.70;99.90
3976;DHT22;2002;48.812;9.180;2023-07-09T10:52:30;24.70;99.90
3976;DHT22;2002;48.812;9.180;2023-07-09T10:55:16;24.70;99.90
3976;DHT22;2002;48.812;9.180;2023-07-09T10:57:57;24.70;99.90
3976;DHT22;2002;48.812;9.180;2023-07-09T11:00:34;24.70;99.90
3976;DHT22;2002;48.812;9.180;2023-07-09T11:03:05;24.70;99.90
3976;DHT22;2002;48.812;9.180;2023-07-09T11:05:32;24.70;99.90
3976;DHT22;2002;48.812;9.180;2023-07-09T11:11:10;24.70;99.90
3976;DHT22;2002;48.812;9.180;2023-07-09T11:16:01;24.70;99.90
3976;DHT22;2002;48.812;9.180;2023-07-09T11:18:32;24.70;99.90
3976;DHT22;2002;48.812;9.180;2023-07-09T11:21:08;24.70;99.90
3976;DHT22;2002;48.812;9.180;2023-07-09T11:23:46;24.70;99.90
3976;DHT22;2002;48.812;9.180;2023-07-09T11:26:21;24.70;99.90
3976;DHT22;2002;48.812;9.180;2023-07-09T11:28:52;24.80;99.90
3976;DHT22;2002;48.812;9.180;2023-07-09T11:34:00;24.80;99.90
3976;DHT22;2002;48.812;9.180;2023-07-09T11:36:29;24.80;99.90
3976;DHT22;2002;48.812;9.180;2023-07-09T11:38:55;24.80;99.90
3976;DHT22;2002;48.812;9.180;2023-07-09T11:44:18;24.80;99.90
3976;DHT22;2002;48.812;9.180;2023-07-09T11:47:24;24.80;99.90
3976;DHT22;2002;48.812;9.180;2023-07-09T11:52:45;24.80;99.90
3976;DHT22;2002;48.812;9.180;2023-07-09T11:55:36;24.80;99.90
3976;DHT22;2002;48.812;9.180;2023-07-09T11:58:04;24.80;99.90
3976;DHT22;2002;48.812;9.180;2023-07-09T12:00:37;24.80;99.90
3976;DHT22;2002;48.812;9.180;2023-07-09T12:03:05;24.80;99.90
3976;DHT22;2002;48.812;9.180;2023-07-09T12:05:31;24.80;99.90
3976;DHT22;2002;48.812;9.180;2023-07-09T12:07:58;24.80;99.90
3976;DHT22;2002;48.812;9.180;2023-07-09T12:10:34;24.70;92.60
3976;DHT22;2002;48.812;9.180;2023-07-09T12:13:00;24.50;86.30
3976;DHT22;2002;48.812;9.180;2023-07-09T12:15:29;24.20;86.00
3976;DHT22;2002;48.812;9.180;2023-07-09T12:18:02;24.00;81.30
3976;DHT22;2002;48.812;9.180;2023-07-09T12:20:31;23.80;81.90
3976;DHT22;2002;48.812;9.180;2023-07-09T12:22:59;23.70;68.10
3976;DHT22;2002;48.812;9.180;2023-07-09T12:25:33;23.70;64.90
3976;DHT22;2002;48.812;9.180;2023-07-09T12:27:58;23.60;67.70
3976;DHT22;2002;48.812;9.180;2023-07-09T12:30:24;23.50;66.10
3976;DHT22;2002;48.812;9.180;2023-07-09T12:32:51;23.50;64.30
3976;DHT22;2002;48.812;9.180;2023-07-09T12:35:19;23.40;65.40
3976;DHT22;2002;48.812;9.180;2023-07-09T12:37:47;23.30;58.90
3976;DHT22;2002;48.812;9.180;2023-07-09T12:40:21;23.30;62.10
3976;DHT22;2002;48.812;9.180;2023-07-09T12:42:48;23.30;61.40
3976;DHT22;2002;48.812;9.180;2023-07-09T12:45:15;23.30;73.70
3976;DHT22;2002;48.812;9.180;2023-07-09T12:47:42;23.30;79.00
3976;DHT22;2002;48.812;9.180;2023-07-09T12:50:28;23.20;76.10
3976;DHT22;2002;48.812;9.180;2023-07-09T12:52:56;23.20;77.50
3976;DHT22;2002;48.812;9.180;2023-07-09T12:55:25;23.20;82.60
3976;DHT22;2002;48.812;9.180;2023-07-09T12:57:54;23.10;78.20
3976;DHT22;2002;48.812;9.180;2023-07-09T13:00:20;23.00;74.10
3976;DHT22;2002;48.812;9.180;2023-07-09T13:02:54;23.00;80.50
3976;DHT22;2002;48.812;9.180;2023-07-09T13:05:22;23.00;76.20
3976;DHT22;2002;48.812;9.180;2023-07-09T13:08:14;22.90;83.10
3976;DHT22;2002;48.812;9.180;2023-07-09T13:10:41;23.00;85.00
3976;DHT22;2002;48.812;9.180;2023-07-09T13:13:13;22.90;75.80
3976;DHT22;2002;48.812;9.180;2023-07-09T13:15:43;22.90;83.70
3976;DHT22;2002;48.812;9.180;2023-07-09T13:18:12;22.90;81.40
3976;DHT22;2002;48.812;9.180;2023-07-09T13:20:40;22.80;81.30
3976;DHT22;2002;48.812;9.180;2023-07-09T13:23:14;22.80;84.80
3976;DHT22;2002;48.812;9.180;2023-07-09T13:25:41;22.80;82.40
3976;DHT22;2002;48.812;9.180;2023-07-09T13:28:23;22.70;83.50
3976;DHT22;2002;48.812;9.180;2023-07-09T13:30:52;22.70;81.90
3976;DHT22;2002;48.812;9.180;2023-07-09T13:33:18;22.70;90.00
3976;DHT22;2002;48.812;9.180;2023-07-09T13:35:46;22.70;90.50
3976;DHT22;2002;48.812;9.180;2023-07-09T13:38:20;22.70;87.40
3976;DHT22;2002;48.812;9.180;2023-07-09T13:40:48;22.70;83.70
3976;DHT22;2002;48.812;9.180;2023-07-09T13:43:18;22.70;90.00
3976;DHT22;2002;48.812;9.180;2023-07-09T13:45:44;22.70;95.20
3976;DHT22;2002;48.812;9.180;2023-07-09T13:48:16;22.60;85.70
3976;DHT22;2002;48.812;9.180;2023-07-09T13:50:43;22.50;72.50
3976;DHT22;2002;48.812;9.180;2023-07-09T13:53:17;22.50;72.80
3976;DHT22;2002;48.812;9.180;2023-07-09T13:55:44;22.50;79.30
3976;DHT22;2002;48.812;9.180;2023-07-09T13:58:15;22.60;86.70
3976;DHT22;2002;48.812;9.180;2023-07-09T14:00:42;22.60;93.10
3976;DHT22;2002;48.812;9.180;2023-07-09T14:03:21;22.60;88.30
3976;DHT22;2002;48.812;9.180;2023-07-09T14:05:48;22.50;90.30
3976;DHT22;2002;48.812;9.180;2023-07-09T14:08:14;22.50;94.60
3976;DHT22;2002;48.812;9.180;2023-07-09T14:10:40;22.50;94.10
3976;DHT22;2002;48.812;9.180;2023-07-09T14:13:07;22.50;93.10
3976;DHT22;2002;48.812;9.180;2023-07-09T14:15:34;22.50;87.10
3976;DHT22;2002;48.812;9.180;2023-07-09T14:17:59;22.50;83.70
3976;DHT22;2002;48.812;9.180;2023-07-09T14:20:25;22.40;85.00
3976;DHT22;2002;48.812;9.180;2023-07-09T14:22:51;22.50;93.40
3976;DHT22;2002;48.812;9.180;2023-07-09T14:25:22;22.50;94.00
3976;DHT22;2002;48.812;9.180;2023-07-09T14:27:49;22.50;95.70
3976;DHT22;2002;48.812;9.180;2023-07-09T14:30:18;22.40;90.80
3976;DHT22;2002;48.812;9.180;2023-07-09T14:32:45;22.40;99.90
3976;DHT22;2002;48.812;9.180;2023-07-09T14:37:39;22.40;94.80
3976;DHT22;2002;48.812;9.180;2023-07-09T14:40:05;22.40;92.60
3976;DHT22;2002;48.812;9.180;2023-07-09T14:42:31;22.40;87.90
3976;DHT22;2002;48.812;9.180;2023-07-09T14:44:57;22.30;91.90
3976;DHT22;2002;48.812;9.180;2023-07-09T14:47:22;22.40;98.80
3976;DHT22;2002;48.812;9.180;2023-07-09T14:49:49;22.30;99.90
3976;DHT22;2002;48.812;9.180;2023-07-09T14:52:18;22.40;98.80
3976;DHT22;2002;48.812;9.180;2023-07-09T14:54:45;22.30;95.30
3976;DHT22;2002;48.812;9.180;2023-07-09T14:57:24;22.40;99.90
3976;DHT22;2002;48.812;9.180;2023-07-09T14:59:51;22.30;98.80
3976;DHT22;2002;48.812;9.180;2023-07-09T15:02:35;22.30;99.00
3976;DHT22;2002;48.812;9.180;2023-07-09T15:05:03;22.30;99.90
3976;DHT22;2002;48.812;9.180;2023-07-09T15:07:29;22.30;95.50
3976;DHT22;2002;48.812;9.180;2023-07-09T15:09:56;22.30;93.00
3976;DHT22;2002;48.812;9.180;2023-07-09T15:12:28;22.30;99.90
3976;DHT22;2002;48.812;9.180;2023-07-09T15:17:46;22.30;99.90
3976;DHT22;2002;48.812;9.180;2023-07-09T15:20:20;22.30;99.90
3976;DHT22;2002;48.812;9.180;2023-07-09T15:22:48;22.30;99.90
3976;DHT22;2002;48.812;9.180;2023-07-09T15:25:21;22.30;99.90
3976;DHT22;2002;48.812;9.180;2023-07-09T15:27:47;22.30;99.90
3976;DHT22;2002;48.812;9.180;2023-07-09T15:30:20;22.30;99.90
3976;DHT22;2002;48.812;9.180;2023-07-09T15:32:47;22.30;99.90
3976;DHT22;2002;48.812;9.180;2023-07-09T15:35:15;22.20;99.90
3976;DHT22;2002;48.812;9.180;2023-07-09T15:37:41;22.30;99.90
3976;DHT22;2002;48.812;9.180;2023-07-09T15:40:22;22.30;99.90
3976;DHT22;2002;48.812;9.180;2023-07-09T15:42:51;22.30;99.90
3976;DHT22;2002;48.812;9.180;2023-07-09T15:45:19;22.20;99.90
3976;DHT22;2002;48.812;9.180;2023-07-09T15:47:46;22.20;99.90
3976;DHT22;2002;48.812;9.180;2023-07-09T15:50:17;22.20;99.90
3976;DHT22;2002;48.812;9.180;2023-07-09T15:52:44;22.20;98.00
3976;DHT22;2002;48.812;9.180;2023-07-09T15:55:19;22.20;99.90
3976;DHT22;2002;48.812;9.180;2023-07-09T15:57:46;22.20;99.90
3976;DHT22;2002;48.812;9.180;2023-07-09T16:02:45;22.20;99.90
3976;DHT22;2002;48.812;9.180;2023-07-09T16:05:23;22.20;99.90
3976;DHT22;2002;48.812;9.180;2023-07-09T16:07:50;22.20;99.90
3976;DHT22;2002;48.812;9.180;2023-07-09T16:10:16;22.20;99.90
3976;DHT22;2002;48.812;9.180;2023-07-09T16:12:42;22.20;99.90
3976;DHT22;2002;48.812;9.180;2023-07-09T16:15:13;22.20;99.60
3976;DHT22;2002;48.812;9.180;2023-07-09T16:17:42;22.20;98.60
3976;DHT22;2002;48.812;9.180;2023-07-09T16:20:13;22.10;99.90
3976;DHT22;2002;48.812;9.180;2023-07-09T16:22:41;22.10;96.40
3976;DHT22;2002;48.812;9.180;2023-07-09T16:25:24;22.10;99.90
3976;DHT22;2002;48.812;9.180;2023-07-09T16:27:50;22.10;99.90
3976;DHT22;2002;48.812;9.180;2023-07-09T16:30:17;22.10;99.90
3976;DHT22;2002;48.812;9.180;2023-07-09T16:32:44;22.10;99.90
3976;DHT22;2002;48.812;9.180;2023-07-09T16:35:19;22.10;99.90
3976;DHT22;2002;48.812;9.180;2023-07-09T16:37:47;22.10;99.90
3976;DHT22;2002;48.812;9.180;2023-07-09T16:40:22;22.10;99.90
3976;DHT22;2002;48.812;9.180;2023-07-09T16:42:49;22.10;98.20
3976;DHT22;2002;48.812;9.180;2023-07-09T16:45:17;22.10;99.90
3976;DHT22;2002;48.812;9.180;2023-07-09T16:47:44;22.10;99.70
3976;DHT22;2002;48.812;9.180;2023-07-09T16:50:16;22.10;99.90
3976;DHT22;2002;48.812;9.180;2023-07-09T16:52:43;22.10;99.90
3976;DHT22;2002;48.812;9.180;2023-07-09T16:55:14;22.10;97.70
3976;DHT22;2002;48.812;9.180;2023-07-09T16:57:39;22.00;99.90
3976;DHT22;2002;48.812;9.180;2023-07-09T17:00:20;22.10;99.90
3976;DHT22;2002;48.812;9.180;2023-07-09T17:02:46;22.00;99.90
3976;DHT22;2002;48.812;9.180;2023-07-09T17:05:12;22.00;95.60
3976;DHT22;2002;48.812;9.180;2023-07-09T17:07:38;22.00;98.40